Time;durP1;ratioP1;P1;durP2;ratioP2;P2;SDS_P1;SDS_P2;PMS_P1;PMS_P2;Temp;Humidity;BMP_temperature;BMP_pressure;BME280_temperature;BME280_humidity;BME280_pressure;Samples;Min_cycle;Max_cycle;Signal;HPM_P1;HPM_P2
2023/03/07 00:01:07;;;;;;;18.35;12.10;;;;;;;3.53;100.00;99300.56;4980984;28;20043;-80
2023/03/07 00:03:35;;;;;;;17.83;11.52;;;;;;;3.60;100.00;99310.22;4977752;28;20094;-80
2023/03/07 00:06:03;;;;;;;18.27;11.27;;;;;;;3.52;100.00;99309.28;4978554;28;20051;-80
2023/03/07 00:08:30;;;;;;;16.83;11.50;;;;;;;3.61;100.00;99316.19;4978003;28;20081;-78
2023/03/07 00:11:01;;;;;;;19.40;12.13;;;;;;;3.53;100.00;99309.16;4977784;28;20082;-81
2023/03/07 00:13:30;;;;;;;20.05;11.35;;;;;;;3.57;100.00;99309.69;4976952;28;20093;-80
2023/03/07 00:16:00;;;;;;;17.88;11.73;;;;;;;3.55;100.00;99306.44;4977479;28;20043;-79
2023/03/07 00:18:29;;;;;;;16.50;10.90;;;;;;;3.56;100.00;99303.69;4976788;28;20528;-81
2023/03/07 00:20:59;;;;;;;17.00;11.30;;;;;;;3.59;100.00;99305.19;4977857;28;20051;-79
2023/03/07 00:23:26;;;;;;;17.60;11.30;;;;;;;3.62;100.00;99297.94;4977889;28;20432;-80
2023/03/07 00:26:00;;;;;;;17.15;11.93;;;;;;;3.57;100.00;99300.16;4976973;28;20153;-80
2023/03/07 00:28:27;;;;;;;16.50;11.32;;;;;;;3.58;100.00;99291.44;4977688;28;20106;-80
2023/03/07 00:30:54;;;;;;;17.25;11.95;;;;;;;3.60;100.00;99296.47;4973992;28;20412;-79
2023/03/07 00:33:21;;;;;;;16.58;11.23;;;;;;;3.56;100.00;99292.53;4975507;28;20133;-78
2023/03/07 00:35:56;;;;;;;15.70;11.13;;;;;;;3.53;100.00;99283.28;4976118;28;20093;-78
2023/03/07 00:38:23;;;;;;;18.58;11.00;;;;;;;3.56;100.00;99287.38;4976221;28;20050;-78
2023/03/07 00:40:57;;;;;;;16.73;11.68;;;;;;;3.55;100.00;99285.72;4976359;28;20101;-77
2023/03/07 00:43:24;;;;;;;15.23;10.55;;;;;;;3.56;100.00;99284.78;4983446;28;20054;-79
2023/03/07 00:45:51;;;;;;;16.02;11.18;;;;;;;3.56;100.00;99289.94;4978293;28;20097;-80
2023/03/07 00:48:17;;;;;;;16.27;11.05;;;;;;;3.62;100.00;99281.63;4975794;28;20126;-80
2023/03/07 00:50:45;;;;;;;15.50;10.90;;;;;;;3.55;100.00;99281.38;4974973;28;20051;-77
2023/03/07 00:53:13;;;;;;;20.98;11.32;;;;;;;3.58;100.00;99281.09;4974540;28;20110;-79
2023/03/07 00:55:39;;;;;;;17.40;11.93;;;;;;;3.55;100.00;99281.38;4974893;28;20133;-79
2023/03/07 00:58:06;;;;;;;15.52;10.88;;;;;;;3.55;100.00;99273.63;4975196;28;20074;-79
2023/03/07 01:00:33;;;;;;;14.82;11.00;;;;;;;3.56;100.00;99277.81;4974455;28;20441;-79
2023/03/07 01:03:00;;;;;;;14.27;10.50;;;;;;;3.55;100.00;99271.03;4974523;28;20465;-79
2023/03/07 01:05:28;;;;;;;17.10;11.02;;;;;;;3.56;100.00;99277.81;4975525;28;20086;-77
2023/03/07 01:07:54;;;;;;;16.88;10.18;;;;;;;3.52;100.00;99271.31;4966745;28;20130;-77
2023/03/07 01:10:23;;;;;;;14.60;10.00;;;;;;;3.56;100.00;99270.06;4974437;28;20082;-78
2023/03/07 01:12:49;;;;;;;15.15;10.23;;;;;;;3.52;100.00;99273.09;4965668;28;20049;-79
2023/03/07 01:15:16;;;;;;;13.68;9.48;;;;;;;3.51;100.00;99272.28;4975341;28;20148;-80
2023/03/07 01:17:42;;;;;;;14.30;9.30;;;;;;;3.54;100.00;99248.72;4967747;28;20110;-79
2023/03/07 01:20:11;;;;;;;15.75;9.50;;;;;;;3.51;100.00;99263.69;4975177;28;20118;-77
2023/03/07 01:22:37;;;;;;;14.32;9.15;;;;;;;3.47;100.00;99263.16;4974128;28;20461;-80
2023/03/07 01:25:04;;;;;;;14.27;9.75;;;;;;;3.47;100.00;99255.41;4975097;28;20046;-80
2023/03/07 01:42:01;;;;;;;13.32;8.90;;;;;;;3.29;100.00;99244.22;4973864;28;20093;-79
2023/03/07 01:44:28;;;;;;;14.48;9.85;;;;;;;3.37;100.00;99252.06;4974576;28;20085;-79
2023/03/07 01:46:55;;;;;;;16.38;10.13;;;;;;;3.31;100.00;99237.13;4975109;28;20461;-79
2023/03/07 01:49:26;;;;;;;14.68;9.70;;;;;;;3.37;100.00;99251.25;4980386;28;20065;-77
2023/03/07 01:51:59;;;;;;;13.95;9.57;;;;;;;3.35;100.00;99248.78;5022314;23;20211;-78
2023/03/07 01:54:27;;;;;;;13.00;9.38;;;;;;;3.34;100.00;99250.56;4976934;28;20118;-80
2023/03/07 01:56:54;;;;;;;16.38;8.85;;;;;;;3.29;100.00;99233.88;4982348;28;20069;-78
2023/03/07 01:59:29;;;;;;;14.50;9.38;;;;;;;3.33;100.00;99225.66;4984836;28;20556;-79
2023/03/07 02:01:58;;;;;;;15.80;10.30;;;;;;;3.29;100.00;99239.06;4984197;28;20084;-80
2023/03/07 02:04:30;;;;;;;17.67;10.38;;;;;;;3.34;100.00;99237.66;4981448;28;20082;-79
2023/03/07 02:06:56;;;;;;;13.85;9.98;;;;;;;3.33;100.00;99220.50;4986235;28;20082;-81
2023/03/07 02:09:26;;;;;;;15.70;10.45;;;;;;;3.33;100.00;99217.91;4982608;28;20101;-80
2023/03/07 02:11:55;;;;;;;16.35;10.80;;;;;;;3.32;100.00;99215.47;4985069;28;20043;-78
2023/03/07 02:14:23;;;;;;;16.92;10.77;;;;;;;3.31;100.00;99217.25;4984313;28;20074;-78
2023/03/07 02:16:51;;;;;;;16.83;11.35;;;;;;;3.29;100.00;99208.03;4979306;28;20096;-80
2023/03/07 02:19:30;;;;;;;16.17;11.32;;;;;;;3.30;100.00;99214.84;4982482;28;20078;-80
2023/03/07 02:22:07;;;;;;;17.75;11.63;;;;;;;3.28;100.00;99216.75;4975068;28;20078;-79
2023/03/07 02:24:42;;;;;;;17.30;12.25;;;;;;;3.26;100.00;99209.13;4979907;28;20063;-79
2023/03/07 02:27:10;;;;;;;19.05;12.40;;;;;;;3.31;100.00;99208.69;4978247;28;20093;-78
2023/03/07 02:29:38;;;;;;;18.70;12.80;;;;;;;3.33;100.00;99199.00;4977152;28;20130;-78
2023/03/07 02:32:05;;;;;;;19.67;13.13;;;;;;;3.34;100.00;99203.22;4977983;28;20122;-78
2023/03/07 02:34:32;;;;;;;18.75;12.73;;;;;;;3.33;100.00;99199.81;4979377;28;20093;-78
2023/03/07 02:37:03;;;;;;;19.52;13.13;;;;;;;3.38;100.00;99196.81;4981734;28;20054;-79
2023/03/07 02:39:30;;;;;;;21.05;12.60;;;;;;;3.38;100.00;99194.22;4982151;28;20070;-80
2023/03/07 02:41:59;;;;;;;19.70;12.43;;;;;;;3.40;100.00;99200.06;4974499;28;20078;-79
2023/03/07 02:44:27;;;;;;;17.55;11.55;;;;;;;3.45;100.00;99197.84;4982737;28;20525;-79
2023/03/07 02:46:53;;;;;;;16.90;11.80;;;;;;;3.49;100.00;99190.63;4980950;28;20481;-79
2023/03/07 02:49:20;;;;;;;17.30;11.85;;;;;;;3.52;100.00;99198.91;4981319;28;20139;-79
2023/03/07 02:51:47;;;;;;;15.05;11.15;;;;;;;3.54;100.00;99175.47;4981225;28;20114;-78
2023/03/07 02:54:13;;;;;;;17.00;12.18;;;;;;;3.58;100.00;99187.97;4982899;28;20082;-80
2023/03/07 02:56:40;;;;;;;19.70;12.02;;;;;;;3.63;100.00;99184.94;4981270;28;20055;-79
2023/03/07 02:59:07;;;;;;;14.85;10.65;;;;;;;3.60;100.00;99178.28;4981078;28;20085;-79
2023/03/07 03:01:35;;;;;;;16.52;11.80;;;;;;;3.61;100.00;99179.13;4979791;28;20070;-78
2023/03/07 03:04:01;;;;;;;17.05;11.27;;;;;;;3.64;100.00;99177.03;4980069;28;20088;-81
2023/03/07 03:06:28;;;;;;;16.85;11.25;;;;;;;3.68;100.00;99172.38;4979026;28;20074;-78
2023/03/07 03:08:55;;;;;;;19.92;12.07;;;;;;;3.64;100.00;99169.28;4979344;28;20051;-78
2023/03/07 03:11:21;;;;;;;15.63;11.93;;;;;;;3.69;100.00;99168.84;4981221;28;20115;-79
2023/03/07 03:13:48;;;;;;;16.88;11.98;;;;;;;3.67;100.00;99170.75;4979251;28;20097;-79
2023/03/07 03:16:16;;;;;;;15.00;11.15;;;;;;;3.64;100.00;99165.88;4979370;28;20314;-78
2023/03/07 03:18:44;;;;;;;14.23;11.07;;;;;;;3.64;100.00;99171.06;4980142;28;20078;-78
2023/03/07 03:21:11;;;;;;;15.48;11.75;;;;;;;3.61;100.00;99169.56;4981530;28;20047;-79
2023/03/07 03:23:38;;;;;;;16.85;11.18;;;;;;;3.58;100.00;99163.88;4982965;28;20070;-79
2023/03/07 03:26:08;;;;;;;16.05;11.15;;;;;;;3.57;100.00;99165.66;4983418;28;20141;-79
2023/03/07 03:28:36;;;;;;;15.98;11.43;;;;;;;3.40;100.00;99150.94;4981028;28;20051;-79
2023/03/07 03:31:04;;;;;;;15.52;11.45;;;;;;;3.52;100.00;99161.88;4979756;28;20130;-78
2023/03/07 03:33:31;;;;;;;15.98;11.13;;;;;;;3.49;100.00;99162.97;4982663;28;20105;-78
2023/03/07 03:36:05;;;;;;;16.50;11.63;;;;;;;3.49;100.00;99159.59;4982986;28;20154;-79
2023/03/07 03:38:32;;;;;;;16.90;11.05;;;;;;;3.48;100.00;99156.19;4981365;28;20391;-77
2023/03/07 03:40:58;;;;;;;18.05;11.90;;;;;;;3.50;100.00;99154.28;4983006;28;20142;-78
2023/03/07 03:43:25;;;;;;;15.35;10.93;;;;;;;3.42;100.00;99151.59;4986459;28;20097;-78
2023/03/07 03:45:55;;;;;;;15.27;10.75;;;;;;;3.46;100.00;99152.94;4986167;28;20050;-78
2023/03/07 03:48:22;;;;;;;16.48;12.18;;;;;;;3.42;100.00;99156.78;4992389;28;20061;-79
2023/03/07 03:50:49;;;;;;;18.02;12.27;;;;;;;3.37;100.00;99153.81;4993099;28;20059;-80
2023/03/07 03:53:17;;;;;;;17.67;11.93;;;;;;;3.37;100.00;99164.16;4988063;28;20069;-79
2023/03/07 03:55:43;;;;;;;17.08;12.20;;;;;;;3.39;100.00;99162.22;4994241;28;20079;-79
2023/03/07 03:58:11;;;;;;;18.75;12.15;;;;;;;3.35;100.00;99153.13;4992676;28;20051;-80
2023/03/07 04:00:37;;;;;;;18.13;12.43;;;;;;;3.39;100.00;99151.88;4982452;28;20058;-80
2023/03/07 04:03:04;;;;;;;18.17;12.80;;;;;;;3.36;100.00;99159.94;4988049;28;20089;-79
2023/03/07 04:05:33;;;;;;;17.58;12.75;;;;;;;3.34;100.00;99154.91;4987002;28;20054;-80
2023/03/07 04:08:00;;;;;;;19.40;12.55;;;;;;;3.30;100.00;99145.03;4987296;28;20153;-79
2023/03/07 04:10:28;;;;;;;17.90;12.93;;;;;;;3.32;100.00;99143.91;4986196;28;20055;-80
2023/03/07 04:12:54;;;;;;;19.45;12.80;;;;;;;3.31;100.00;99123.34;4985530;28;20078;-80
2023/03/07 04:15:21;;;;;;;20.38;13.00;;;;;;;3.34;100.00;99139.41;4986849;28;20109;-79
2023/03/07 04:17:47;;;;;;;18.40;12.85;;;;;;;3.34;100.00;99138.59;4989027;28;20051;-80
2023/03/07 04:20:16;;;;;;;20.50;14.77;;;;;;;3.34;100.00;99133.41;4987031;28;20062;-81
2023/03/07 04:22:43;;;;;;;20.77;14.07;;;;;;;3.34;100.00;99123.06;4988423;28;20047;-78
2023/03/07 04:25:10;;;;;;;17.35;12.38;;;;;;;3.33;100.00;99124.84;4987610;28;20055;-79
2023/03/07 04:27:38;;;;;;;20.88;14.65;;;;;;;3.36;100.00;99118.56;4986514;28;20075;-79
2023/03/07 04:30:05;;;;;;;21.08;14.73;;;;;;;3.35;100.00;99109.19;4985798;28;20193;-79
2023/03/07 04:32:33;;;;;;;21.88;14.02;;;;;;;3.37;100.00;99109.84;4987875;28;20054;-78
2023/03/07 04:34:59;;;;;;;23.10;13.82;;;;;;;3.32;100.00;99099.13;4988647;28;20054;-79
2023/03/07 04:37:26;;;;;;;19.13;13.70;;;;;;;3.41;100.00;99108.59;4987104;28;20054;-79
2023/03/07 04:39:52;;;;;;;17.77;12.57;;;;;;;3.38;100.00;99100.31;4985790;28;20139;-78
2023/03/07 04:42:19;;;;;;;19.85;14.48;;;;;;;3.40;100.00;99106.97;4982345;28;20086;-78
2023/03/07 04:44:47;;;;;;;22.73;14.35;;;;;;;3.41;100.00;99106.00;4982845;28;20105;-78
2023/03/07 04:47:13;;;;;;;22.13;14.20;;;;;;;3.41;100.00;99102.63;4983609;28;20473;-79
2023/03/07 04:49:40;;;;;;;20.40;14.00;;;;;;;3.40;100.00;99099.22;4983347;28;20081;-80
2023/03/07 04:52:07;;;;;;;21.55;14.57;;;;;;;3.43;100.00;99100.69;4982833;28;20074;-78
2023/03/07 04:54:34;;;;;;;23.80;15.30;;;;;;;3.45;100.00;99094.41;4981115;28;20102;-80
2023/03/07 04:57:00;;;;;;;22.67;15.18;;;;;;;3.45;100.00;99081.50;4983038;28;20062;-80
2023/03/07 04:59:27;;;;;;;19.25;14.32;;;;;;;3.43;100.00;99093.75;4982748;28;20090;-79
2023/03/07 05:01:55;;;;;;;22.50;14.82;;;;;;;3.45;100.00;99094.41;4981969;28;20116;-81
2023/03/07 05:04:21;;;;;;;22.17;14.38;;;;;;;3.41;100.00;99082.75;4981590;28;20140;-79
2023/03/07 05:06:48;;;;;;;24.20;15.10;;;;;;;3.46;100.00;99090.06;4982503;28;20083;-79
2023/03/07 05:09:14;;;;;;;21.58;15.25;;;;;;;3.42;100.00;99083.56;4983231;28;20070;-79
2023/03/07 05:11:41;;;;;;;21.90;14.18;;;;;;;3.40;100.00;99085.47;4984219;28;20130;-80
2023/03/07 05:14:08;;;;;;;21.98;14.75;;;;;;;3.41;100.00;99077.56;4983549;28;20089;-79
2023/03/07 05:16:34;;;;;;;22.23;14.85;;;;;;;3.42;100.00;99073.22;4982436;28;20524;-80
2023/03/07 05:19:02;;;;;;;22.98;15.18;;;;;;;3.40;100.00;99081.13;4983044;28;20135;-80
2023/03/07 05:21:29;;;;;;;21.70;14.93;;;;;;;3.38;100.00;99075.28;4983231;28;20138;-79
2023/03/07 05:23:56;;;;;;;27.45;16.15;;;;;;;3.40;100.00;99075.94;4981684;28;20051;-78
2023/03/07 05:26:22;;;;;;;22.13;15.82;;;;;;;3.42;100.00;99057.69;4981318;28;20085;-79
2023/03/07 05:28:49;;;;;;;23.58;15.48;;;;;;;3.39;100.00;99071.72;4985326;28;20078;-78
2023/03/07 05:31:15;;;;;;;28.67;17.33;;;;;;;3.37;100.00;99065.91;4979046;28;20055;-78
2023/03/07 05:33:42;;;;;;;24.05;16.45;;;;;;;3.38;100.00;99061.53;4984863;28;20087;-78
2023/03/07 05:36:10;;;;;;;24.65;16.90;;;;;;;3.36;100.00;99064.28;4985870;28;20078;-78
2023/03/07 05:38:37;;;;;;;23.30;16.42;;;;;;;3.37;100.00;99072.84;4983777;28;20051;-80
2023/03/07 05:41:04;;;;;;;25.75;16.10;;;;;;;3.37;100.00;99062.50;4980071;28;20484;-79
2023/03/07 05:43:31;;;;;;;23.92;16.30;;;;;;;3.36;100.00;99059.09;4980258;28;20425;-78
2023/03/07 05:45:58;;;;;;;26.27;16.38;;;;;;;3.39;100.00;99066.56;4981882;28;20043;-78
2023/03/07 05:48:24;;;;;;;23.10;16.70;;;;;;;3.41;100.00;99067.22;4982159;28;20113;-79
2023/03/07 05:50:51;;;;;;;25.10;16.98;;;;;;;3.39;100.00;99058.81;4983242;28;20399;-79
2023/03/07 05:53:20;;;;;;;27.15;17.08;;;;;;;3.36;100.00;99069.44;4982741;28;20051;-77
2023/03/07 05:55:46;;;;;;;29.17;18.98;;;;;;;3.31;100.00;99056.97;4982409;28;20051;-78
2023/03/07 05:58:15;;;;;;;29.08;17.20;;;;;;;3.35;100.00;99057.47;4983237;28;20082;-79
2023/03/07 06:00:42;;;;;;;25.95;16.75;;;;;;;3.41;100.00;99064.66;4985241;28;20050;-78
2023/03/07 06:03:08;;;;;;;24.33;16.50;;;;;;;3.40;100.00;99044.91;4983006;28;20051;-77
2023/03/07 06:05:35;;;;;;;27.00;16.35;;;;;;;3.28;100.00;99021.09;4984521;28;20051;-77
2023/03/07 06:08:03;;;;;;;23.00;16.10;;;;;;;3.37;100.00;99044.41;4985386;28;20078;-79
2023/03/07 06:10:38;;;;;;;24.33;16.45;;;;;;;3.48;100.00;99055.34;4985191;28;20047;-77
2023/03/07 06:13:05;;;;;;;24.42;15.80;;;;;;;3.45;100.00;99045.28;4984302;28;20050;-78
2023/03/07 06:15:32;;;;;;;22.23;15.63;;;;;;;3.52;100.00;99051.50;4976321;28;20343;-76
2023/03/07 06:17:59;;;;;;;23.83;16.10;;;;;;;3.51;100.00;99043.88;4982402;28;20051;-78
2023/03/07 06:20:25;;;;;;;24.77;16.85;;;;;;;3.51;100.00;99052.44;4982614;28;20407;-78
2023/03/07 06:22:52;;;;;;;22.85;15.77;;;;;;;3.53;100.00;99060.06;4974779;28;20062;-78
2023/03/07 06:25:20;;;;;;;24.48;16.70;;;;;;;3.52;100.00;99043.72;4983937;28;20074;-79
2023/03/07 06:27:49;;;;;;;25.67;17.15;;;;;;;3.51;100.00;99036.94;4984956;28;20137;-77
2023/03/07 06:30:15;;;;;;;24.20;16.90;;;;;;;3.53;100.00;99045.34;4976097;28;20398;-78
2023/03/07 06:32:42;;;;;;;27.92;16.95;;;;;;;3.56;100.00;99044.25;4973529;28;20085;-78
2023/03/07 06:35:09;;;;;;;25.40;16.92;;;;;;;3.57;100.00;99046.69;4975026;28;20130;-77
2023/03/07 06:37:43;;;;;;;24.02;15.95;;;;;;;3.58;100.00;99043.13;4973761;28;20094;-77
2023/03/07 06:40:12;;;;;;;24.10;15.63;;;;;;;3.63;100.00;99046.09;4973360;28;20050;-77
2023/03/07 06:42:39;;;;;;;22.88;15.25;;;;;;;3.65;100.00;99041.56;4973217;28;20126;-78
2023/03/07 06:45:08;;;;;;;23.35;16.30;;;;;;;3.60;100.00;99041.22;4973203;28;20057;-79
2023/03/07 06:47:34;;;;;;;23.50;16.02;;;;;;;3.63;100.00;99045.28;4969930;28;20130;-78
2023/03/07 06:50:02;;;;;;;23.38;15.00;;;;;;;3.64;100.00;99026.22;4973852;28;20039;-77
2023/03/07 06:52:28;;;;;;;22.95;15.18;;;;;;;3.62;100.00;99028.94;4972558;28;20057;-78
2023/03/07 06:54:55;;;;;;;24.80;15.20;;;;;;;3.70;100.00;99022.22;4965477;28;20054;-79
2023/03/07 06:57:21;;;;;;;25.42;15.80;;;;;;;3.71;100.00;99032.41;4974285;28;20055;-77
2023/03/07 06:59:48;;;;;;;24.08;15.95;;;;;;;3.74;100.00;99028.72;4974204;28;20070;-79
2023/03/07 07:02:16;;;;;;;28.95;16.35;;;;;;;3.79;100.00;99019.50;4976391;28;20486;-79
2023/03/07 07:04:54;;;;;;;25.13;16.15;;;;;;;3.83;100.00;99020.81;4976915;28;20133;-80
2023/03/07 07:07:20;;;;;;;22.35;15.18;;;;;;;3.89;100.00;99016.81;4977356;28;20055;-79
2023/03/07 07:09:47;;;;;;;23.67;14.82;;;;;;;3.91;100.00;99020.06;4973521;28;20047;-78
2023/03/07 07:12:14;;;;;;;23.75;15.18;;;;;;;3.95;100.00;99031.72;4961102;28;20159;-79
2023/03/07 07:14:40;;;;;;;28.45;15.80;;;;;;;4.02;100.00;99025.00;4979850;28;20590;-78
2023/03/07 07:17:07;;;;;;;22.45;14.85;;;;;;;4.06;100.00;99026.31;4982511;28;20074;-78
2023/03/07 07:19:36;;;;;;;20.90;13.98;;;;;;;4.08;100.00;99013.22;4980366;28;20053;-79
2023/03/07 07:22:07;;;;;;;20.73;14.10;;;;;;;4.12;100.00;99017.94;4978050;28;20110;-80
2023/03/07 07:24:34;;;;;;;21.17;13.50;;;;;;;4.19;100.00;99018.13;4981868;28;20054;-78
2023/03/07 07:27:00;;;;;;;19.25;13.35;;;;;;;4.23;100.00;99006.50;4973831;28;20596;-76
2023/03/07 07:29:27;;;;;;;21.63;13.13;;;;;;;4.34;100.00;99006.19;4972814;28;20129;-78
2023/03/07 07:31:53;;;;;;;25.77;13.80;;;;;;;4.32;100.00;99005.53;4971530;28;20050;-77
2023/03/07 07:34:20;;;;;;;25.83;14.43;;;;;;;4.39;100.00;99008.31;4972338;28;20102;-74
2023/03/07 07:36:48;;;;;;;25.23;14.05;;;;;;;4.63;100.00;99018.78;4972366;28;20039;-77
2023/03/07 07:39:16;;;;;;;17.58;12.35;;;;;;;4.65;100.00;99015.06;4972018;28;20523;-76
2023/03/07 07:41:44;;;;;;;19.70;13.52;;;;;;;4.60;100.00;99016.50;4972156;28;20498;-76
2023/03/07 07:44:11;;;;;;;24.60;13.27;;;;;;;4.72;100.00;99020.44;4969485;28;20476;-77
2023/03/07 07:46:37;;;;;;;21.63;13.43;;;;;;;4.60;100.00;99016.50;4971292;28;20047;-75
2023/03/07 07:49:04;;;;;;;18.10;12.27;;;;;;;4.52;100.00;99022.47;4972042;28;20046;-76
2023/03/07 07:51:30;;;;;;;21.63;11.98;;;;;;;4.58;100.00;99027.03;4972723;28;20153;-77
2023/03/07 07:53:58;;;;;;;24.05;13.32;;;;;;;4.48;100.00;99026.34;4970936;28;20047;-76
2023/03/07 07:56:25;;;;;;;25.95;13.27;;;;;;;4.42;100.00;99026.13;4975028;28;20106;-78
2023/03/07 07:58:52;;;;;;;16.73;11.65;;;;;;;4.31;100.00;99015.09;4972564;28;20042;-77
2023/03/07 08:01:21;;;;;;;18.88;11.85;;;;;;;4.40;100.00;99015.13;4971165;28;20098;-79
2023/03/07 08:03:48;;;;;;;19.38;11.65;;;;;;;4.42;100.00;99032.13;4973050;28;20075;-76
2023/03/07 08:06:18;;;;;;;17.45;11.25;;;;;;;4.39;100.00;99021.28;4974892;28;20114;-78
2023/03/07 08:08:44;;;;;;;16.83;11.80;;;;;;;4.35;100.00;99036.31;4970404;28;20176;-77
2023/03/07 08:11:12;;;;;;;16.05;11.50;;;;;;;4.36;100.00;99024.97;4967867;28;20471;-77
2023/03/07 08:13:39;;;;;;;18.42;10.57;;;;;;;4.33;100.00;99027.88;4972134;28;20134;-79
2023/03/07 08:16:10;;;;;;;13.52;9.60;;;;;;;4.33;100.00;99033.88;4975680;28;20066;-76
2023/03/07 08:18:36;;;;;;;15.07;10.50;;;;;;;4.42;100.00;99026.13;4970003;28;20050;-78
2023/03/07 08:21:03;;;;;;;17.45;10.70;;;;;;;4.48;100.00;99035.88;4973750;28;20720;-78
2023/03/07 08:23:30;;;;;;;14.65;10.23;;;;;;;4.57;100.00;99015.03;4973377;28;20546;-79
2023/03/07 08:26:01;;;;;;;15.02;10.13;;;;;;;4.67;100.00;99030.47;4978875;28;20138;-78
2023/03/07 08:28:29;;;;;;;13.75;10.18;;;;;;;4.83;100.00;99027.88;4978479;28;20054;-79
2023/03/07 08:30:56;;;;;;;14.55;10.35;;;;;;;4.86;99.93;99027.56;4976650;28;20047;-78
2023/03/07 08:33:23;;;;;;;14.30;9.43;;;;;;;4.87;99.79;99020.63;4978000;28;20133;-81
2023/03/07 08:35:49;;;;;;;13.43;9.60;;;;;;;4.85;99.47;99025.16;4984178;28;20093;-81
2023/03/07 08:38:18;;;;;;;15.13;10.07;;;;;;;4.93;99.52;99025.97;4983335;28;20129;-80
2023/03/07 08:40:44;;;;;;;15.00;9.45;;;;;;;4.95;99.01;99024.03;4980717;28;20062;-79
2023/03/07 08:43:11;;;;;;;14.27;9.40;;;;;;;4.91;98.51;99027.91;4982611;28;20097;-80
2023/03/07 08:45:42;;;;;;;13.73;10.18;;;;;;;4.94;98.26;99022.41;4982506;28;20074;-80
2023/03/07 08:48:09;;;;;;;16.33;11.20;;;;;;;5.00;98.36;99001.03;4984007;28;20126;-80
2023/03/07 08:50:36;;;;;;;15.27;9.63;;;;;;;5.05;97.88;99004.94;4982765;28;20046;-80
2023/03/07 08:53:03;;;;;;;15.73;9.88;;;;;;;5.09;97.93;99006.25;4983676;28;20050;-80
2023/03/07 08:55:35;;;;;;;13.50;9.40;;;;;;;5.20;97.81;99003.34;4982795;28;20378;-80
2023/03/07 08:58:02;;;;;;;14.93;10.02;;;;;;;5.24;97.24;99005.44;4985023;28;20087;-81
2023/03/07 09:00:29;;;;;;;21.08;10.02;;;;;;;5.36;97.22;99010.28;4984104;28;20043;-81
2023/03/07 09:03:00;;;;;;;14.73;9.85;;;;;;;5.26;97.46;99008.66;4983256;28;20046;-81
2023/03/07 09:05:26;;;;;;;15.90;10.63;;;;;;;5.21;97.42;98997.16;4982125;28;20047;-79
2023/03/07 09:07:53;;;;;;;14.35;10.05;;;;;;;5.24;97.64;99007.22;4981945;28;20446;-80
2023/03/07 09:10:21;;;;;;;17.50;10.70;;;;;;;5.22;97.96;99012.56;4980417;28;20130;-80
2023/03/07 09:12:48;;;;;;;15.25;10.95;;;;;;;5.25;97.97;99019.19;4979057;28;20054;-79
2023/03/07 09:15:14;;;;;;;20.10;12.15;;;;;;;5.17;98.39;99021.81;4978722;28;20070;-79
2023/03/07 09:17:42;;;;;;;19.15;11.25;;;;;;;5.12;99.77;99018.88;4977403;28;20472;-80
2023/03/07 09:20:12;;;;;;;18.98;12.18;;;;;;;5.11;99.87;99022.44;4980485;28;20089;-79
2023/03/07 09:22:39;;;;;;;18.63;11.85;;;;;;;5.15;99.81;99016.78;4981548;28;20137;-80
2023/03/07 09:25:06;;;;;;;16.58;10.70;;;;;;;5.12;99.78;99024.88;4980443;28;20125;-81
2023/03/07 09:27:33;;;;;;;22.60;12.40;;;;;;;5.25;99.38;99030.38;4982246;28;20105;-79
2023/03/07 09:30:00;;;;;;;22.33;12.48;;;;;;;5.45;98.98;99030.09;4980087;28;20134;-79
2023/03/07 09:32:26;;;;;;;18.45;11.52;;;;;;;5.55;99.11;99034.13;4979274;28;20054;-81
2023/03/07 09:34:53;;;;;;;16.65;11.52;;;;;;;5.73;98.89;99020.97;4980460;28;20082;-80
2023/03/07 09:37:21;;;;;;;17.33;11.63;;;;;;;5.77;99.06;99011.88;4981172;28;20086;-80
2023/03/07 09:39:49;;;;;;;16.48;11.20;;;;;;;5.85;98.42;99008.47;4980276;28;20078;-80
2023/03/07 09:42:21;;;;;;;17.27;11.40;;;;;;;5.99;98.71;99011.25;4981410;28;20060;-81
2023/03/07 09:45:04;;;;;;;17.27;10.67;;;;;;;6.03;97.90;99005.72;4983538;28;20076;-80
2023/03/07 09:48:10;;;;;;;17.58;10.73;;;;;;;5.82;97.39;98999.22;4982692;28;20050;-79
2023/03/07 09:50:45;;;;;;;19.55;10.80;;;;;;;5.74;97.02;99011.41;4966061;28;20137;-79
2023/03/07 09:53:22;;;;;;;18.20;11.43;;;;;;;5.81;97.40;99004.59;4982321;28;20077;-78
2023/03/07 09:55:51;;;;;;;19.38;12.30;;;;;;;5.84;97.12;99006.84;4983586;28;20059;-79
2023/03/07 09:58:23;;;;;;;15.00;10.82;;;;;;;5.87;96.86;99009.13;4984426;28;20055;-78
2023/03/07 10:00:55;;;;;;;15.35;11.10;;;;;;;5.93;96.72;98998.09;4983904;28;20114;-82
2023/03/07 10:03:35;;;;;;;18.00;11.43;;;;;;;5.86;97.15;99002.31;4983931;28;20065;-80
2023/03/07 10:06:08;;;;;;;16.30;11.27;;;;;;;5.85;97.28;99000.69;4989356;28;20078;-78
2023/03/07 10:08:37;;;;;;;;;;;;;;;5.82;97.11;99006.19;4991608;28;20051;-80
2023/03/07 10:11:17;;;;;;;17.90;11.82;;;;;;;5.63;97.28;98992.63;4990858;28;19922;-81
2023/03/07 10:13:58;;;;;;;18.77;11.20;;;;;;;5.67;98.23;99000.91;4988956;28;20046;-81
2023/03/07 10:16:31;;;;;;;16.20;10.70;;;;;;;5.60;98.63;98998.13;4986543;28;20488;-79
2023/03/07 10:19:09;;;;;;;19.98;12.57;;;;;;;5.54;98.47;99011.75;4976243;28;20489;-80
2023/03/07 10:21:43;;;;;;;18.35;12.52;;;;;;;5.68;99.09;98999.88;4984738;28;20050;-80
2023/03/07 10:24:36;;;;;;;18.30;12.05;;;;;;;5.78;99.06;99007.50;4984208;28;20541;-81
2023/03/07 10:27:06;;;;;;;17.95;12.70;;;;;;;5.62;99.33;99016.94;4981421;28;20078;-80
2023/03/07 10:29:40;;;;;;;14.43;11.25;;;;;;;5.67;99.87;99025.03;4983056;28;20038;-81
2023/03/07 10:32:21;;;;;;;14.68;10.65;;;;;;;5.67;99.67;99004.28;4981057;28;20050;-81
2023/03/07 10:34:53;;;;;;;13.45;10.38;;;;;;;5.66;100.00;98997.50;4980374;28;20101;-80
2023/03/07 10:37:21;;;;;;;16.65;11.65;;;;;;;5.57;100.00;99008.84;4979585;28;20476;-80
2023/03/07 10:39:52;;;;;;;17.60;10.57;;;;;;;5.46;100.00;99010.94;4978306;28;20057;-79
2023/03/07 10:42:22;;;;;;;13.70;10.50;;;;;;;5.47;100.00;99023.75;4981041;28;20138;-79
2023/03/07 10:44:50;;;;;;;13.88;10.13;;;;;;;5.58;100.00;99005.28;4980339;28;20050;-78
2023/03/07 10:47:20;;;;;;;13.45;9.82;;;;;;;5.58;100.00;99007.88;4980099;28;20054;-81
2023/03/07 10:49:49;;;;;;;12.73;9.80;;;;;;;5.47;100.00;99010.78;4980151;28;20070;-82
2023/03/07 10:52:27;;;;;;;13.18;10.27;;;;;;;5.41;100.00;99008.84;4980139;28;20051;-81
2023/03/07 10:55:17;;;;;;;15.45;11.18;;;;;;;5.31;100.00;99003.81;4980232;28;20087;-79
2023/03/07 10:57:43;;;;;;;14.00;11.25;;;;;;;5.37;100.00;99007.53;4980019;28;20186;-81
2023/03/07 11:00:17;;;;;;;15.80;11.18;;;;;;;5.28;100.00;99009.31;4980568;28;20106;-80
2023/03/07 11:02:47;;;;;;;16.65;11.50;;;;;;;5.40;100.00;99009.81;4980944;28;20070;-80
2023/03/07 11:05:30;;;;;;;17.25;11.75;;;;;;;5.41;100.00;99021.81;4979351;28;20051;-79
2023/03/07 11:07:56;;;;;;;20.40;12.57;;;;;;;5.32;100.00;99026.19;4979463;28;20053;-80
2023/03/07 11:10:31;;;;;;;16.90;12.43;;;;;;;5.21;100.00;99021.31;4979589;28;20078;-79
2023/03/07 11:12:58;;;;;;;16.67;12.65;;;;;;;5.08;100.00;99017.59;4979766;28;20121;-79
2023/03/07 11:15:26;;;;;;;19.60;12.63;;;;;;;5.06;100.00;99030.72;4978685;28;20226;-81
2023/03/07 11:17:53;;;;;;;17.42;13.18;;;;;;;5.00;100.00;99026.97;4977789;28;20141;-78
2023/03/07 11:20:23;;;;;;;19.65;13.20;;;;;;;5.02;100.00;99033.78;4980054;28;20055;-79
2023/03/07 11:22:50;;;;;;;18.15;13.85;;;;;;;4.89;100.00;99026.44;4980247;28;20071;-79
2023/03/07 11:25:21;;;;;;;19.73;13.85;;;;;;;4.76;100.00;99024.31;4980992;28;20054;-80
2023/03/07 11:27:52;;;;;;;19.33;14.10;;;;;;;4.76;100.00;99032.09;4979434;28;20144;-79
2023/03/07 11:30:23;;;;;;;15.70;10.95;;;;;;;4.66;100.00;99039.19;4977745;28;20081;-78
2023/03/07 11:33:08;;;;;;;11.25;8.75;;;;;;;4.47;100.00;99034.25;4980068;28;20047;-80
2023/03/07 11:35:50;;;;;;;12.02;9.18;;;;;;;4.33;100.00;99040.81;4980370;28;20085;-77
2023/03/07 11:38:28;;;;;;;11.55;8.25;;;;;;;4.33;100.00;99036.47;4979622;28;20133;-79
2023/03/07 11:41:02;;;;;;;12.98;8.15;;;;;;;4.29;100.00;99032.56;4977981;28;20133;-78